Time;durP1;ratioP1;P1;durP2;ratioP2;P2;SDS_P1;SDS_P2;PMS_P1;PMS_P2;Temp;Humidity;BMP_temperature;BMP_pressure;BME280_temperature;BME280_humidity;BME280_pressure;Samples;Min_cycle;Max_cycle;Signal;HPM_P1;HPM_P2
2021/05/14 00:04:08;;;;;;;1.93;1.60;;;21.20;52.20;;;;;;10530817;28;20218;-12
2021/05/14 00:09:31;;;;;;;1.80;1.30;;;21.30;52.00;;;;;;10534700;28;20211;-11
2021/05/14 00:14:52;;;;;;;1.40;1.30;;;21.10;52.80;;;;;;10534108;28;20233;-12
2021/05/14 00:20:14;;;;;;;1.50;1.40;;;21.20;52.10;;;;;;10532766;28;20688;-12
2021/05/14 00:25:36;;;;;;;2.03;1.40;;;21.20;52.30;;;;;;10493608;28;20584;-13
2021/05/14 00:30:58;;;;;;;1.20;1.10;;;21.20;52.20;;;;;;10500210;28;20216;-13
2021/05/14 00:36:20;;;;;;;1.73;1.50;;;21.30;52.10;;;;;;10500278;28;20273;-11
2021/05/14 00:41:42;;;;;;;1.47;1.33;;;21.10;52.10;;;;;;10517314;28;20198;-13
2021/05/14 00:47:05;;;;;;;1.40;1.30;;;21.10;52.30;;;;;;10541320;28;20220;-12
2021/05/14 00:52:28;;;;;;;1.50;1.40;;;21.20;52.00;;;;;;10528237;28;20192;-14
2021/05/14 00:57:50;;;;;;;1.40;1.30;;;21.20;52.20;;;;;;10498307;28;20209;-13
2021/05/14 01:03:14;;;;;;;1.43;1.33;;;21.30;51.80;;;;;;10497955;28;20196;-13
2021/05/14 01:08:36;;;;;;;1.40;1.30;;;21.30;51.90;;;;;;10497566;28;20212;-11
2021/05/14 01:13:59;;;;;;;1.50;1.40;;;21.20;52.10;;;;;;10499055;28;20196;-12
2021/05/14 01:19:21;;;;;;;1.73;1.50;;;21.20;52.00;;;;;;10524905;28;20278;-14
2021/05/14 01:24:43;;;;;;;1.53;1.30;;;21.20;52.00;;;;;;10539428;28;20621;-12
2021/05/14 01:30:06;;;;;;;1.60;1.33;;;21.20;51.90;;;;;;10540669;28;20231;-13
2021/05/14 01:35:28;;;;;;;1.60;1.50;;;21.30;52.10;;;;;;10539925;28;20199;-11
2021/05/14 01:40:50;;;;;;;1.40;1.30;;;21.20;52.20;;;;;;10539800;28;20231;-13
2021/05/14 01:46:12;;;;;;;1.20;1.10;;;21.40;51.70;;;;;;10539335;28;20696;-15
2021/05/14 01:51:34;;;;;;;1.40;1.30;;;21.50;51.40;;;;;;10538919;28;20196;-13
2021/05/14 01:56:56;;;;;;;1.30;1.20;;;21.40;51.30;;;;;;10538557;28;20257;-14
2021/05/14 02:02:21;;;;;;;1.30;1.20;;;21.30;51.70;;;;;;10505986;28;20192;-12
2021/05/14 02:07:43;;;;;;;1.50;1.40;;;21.40;51.50;;;;;;10497117;28;20216;-12
2021/05/14 02:13:05;;;;;;;1.23;1.10;;;21.30;51.90;;;;;;10500694;28;20203;-13
2021/05/14 02:18:27;;;;;;;1.40;1.30;;;21.30;51.70;;;;;;10520976;28;20212;-13
2021/05/14 02:23:48;;;;;;;1.23;1.13;;;21.20;52.00;;;;;;10542027;28;20196;-12
2021/05/14 02:29:11;;;;;;;1.57;1.47;;;21.10;52.30;;;;;;10537696;28;20222;-12
2021/05/14 02:34:32;;;;;;;1.00;1.00;;;21.10;52.30;;;;;;10536893;28;20195;-13
2021/05/14 02:39:54;;;;;;;1.30;1.20;;;21.30;51.80;;;;;;10483505;22;20260;-11
2021/05/14 02:45:16;;;;;;;1.23;1.13;;;21.30;51.70;;;;;;10442864;28;20224;-11
2021/05/14 02:50:38;;;;;;;1.57;1.47;;;21.40;51.50;;;;;;10453914;28;20279;-12
2021/05/14 02:56:00;;;;;;;1.43;1.33;;;21.40;51.50;;;;;;10413077;28;20185;-12
2021/05/14 03:01:22;;;;;;;1.47;1.30;;;21.30;51.70;;;;;;10411589;28;20221;-13
2021/05/14 03:06:44;;;;;;;1.70;1.60;;;21.30;51.70;;;;;;10410837;28;20213;-11
2021/05/14 03:12:06;;;;;;;1.60;1.50;;;21.20;51.70;;;;;;10411685;28;20194;-12
2021/05/14 03:17:29;;;;;;;1.40;1.30;;;21.20;52.20;;;;;;10422962;28;20238;-11
2021/05/14 03:22:50;;;;;;;1.70;1.57;;;21.30;51.50;;;;;;10453010;28;20197;-13
2021/05/14 03:28:12;;;;;;;1.40;1.30;;;21.30;51.70;;;;;;10452655;28;20224;-11
2021/05/14 03:33:34;;;;;;;1.60;1.50;;;21.40;51.60;;;;;;10451694;28;20254;-10
2021/05/14 03:38:57;;;;;;;2.03;1.50;;;21.50;51.40;;;;;;10452466;28;20251;-12
2021/05/14 03:44:19;;;;;;;1.60;1.50;;;21.40;51.90;;;;;;10451512;28;20224;-11
2021/05/14 03:49:41;;;;;;;1.37;1.27;;;21.40;51.40;;;;;;10452076;28;20217;-13
2021/05/14 03:55:04;;;;;;;2.57;1.60;;;21.40;51.30;;;;;;10484702;28;20188;-13
2021/05/14 04:00:26;;;;;;;1.60;1.30;;;21.40;51.20;;;;;;10484746;28;20673;-11
2021/05/14 04:05:49;;;;;;;1.87;1.63;;;21.30;51.60;;;;;;10435694;28;20209;-12
2021/05/14 04:11:39;;;;;;;1.40;1.30;;;21.30;51.70;;;;;;10418827;28;20213;-13
2021/05/14 04:17:02;;;;;;;1.60;1.50;;;21.40;51.50;;;;;;10459498;28;20233;-12
2021/05/14 04:22:25;;;;;;;1.53;1.43;;;21.30;51.40;;;;;;10450618;28;20200;-11
2021/05/14 04:27:46;;;;;;;1.60;1.50;;;21.50;51.00;;;;;;10456267;28;20283;-11
2021/05/14 04:33:08;;;;;;;1.73;1.43;;;21.40;51.30;;;;;;10453936;28;20674;-11
2021/05/14 04:38:30;;;;;;;1.77;1.67;;;21.50;51.10;;;;;;10458878;28;20604;-11
2021/05/14 04:43:52;;;;;;;1.60;1.50;;;21.40;51.30;;;;;;10458767;28;20230;-12
2021/05/14 04:49:13;;;;;;;1.40;1.30;;;21.50;51.10;;;;;;10450772;28;20698;-12
2021/05/14 04:54:36;;;;;;;1.73;1.30;;;21.40;51.20;;;;;;10458670;28;20200;-11
2021/05/14 04:59:57;;;;;;;1.40;1.30;;;21.30;51.60;;;;;;10458030;28;20217;-12
2021/05/14 05:05:19;;;;;;;1.90;1.60;;;21.30;51.50;;;;;;10450576;28;20213;-13
2021/05/14 05:10:42;;;;;;;1.87;1.70;;;21.30;51.50;;;;;;10418495;28;20228;-13
2021/05/14 05:16:04;;;;;;;1.63;1.47;;;21.30;51.60;;;;;;10414428;28;20199;-14
2021/05/14 05:21:26;;;;;;;1.40;1.30;;;21.40;51.20;;;;;;10412431;28;20217;-12
2021/05/14 05:26:48;;;;;;;1.63;1.53;;;21.40;50.90;;;;;;10454379;28;20281;-12
2021/05/14 05:32:10;;;;;;;1.70;1.60;;;21.40;51.10;;;;;;10498680;28;20254;-11
2021/05/14 05:37:31;;;;;;;1.60;1.50;;;21.40;51.10;;;;;;10498068;28;20224;-13
2021/05/14 05:42:54;;;;;;;2.07;1.40;;;21.40;51.00;;;;;;10490442;28;20613;-13
2021/05/14 05:48:15;;;;;;;6.82;1.70;;;21.40;51.20;;;;;;10426014;28;20440;-10
2021/05/14 05:53:37;;;;;;;7.60;2.28;;;22.30;48.50;;;;;;10432304;28;20420;-13
2021/05/14 05:58:59;;;;;;;14.13;2.80;;;22.70;47.40;;;;;;10449991;28;20213;-12
2021/05/14 06:04:21;;;;;;;15.07;2.43;;;21.70;49.60;;;;;;10446021;28;20267;-10
2021/05/14 06:09:43;;;;;;;13.90;2.20;;;21.50;50.60;;;;;;10449438;28;20734;-13
2021/05/14 06:15:07;;;;;;;7.33;1.67;;;21.40;50.90;;;;;;10446173;28;20193;-10
2021/05/14 06:20:31;;;;;;;5.70;1.70;;;21.30;51.30;;;;;;10440363;28;20216;-12
2021/05/14 06:25:52;;;;;;;12.67;2.13;;;21.30;51.00;;;;;;10442845;28;20602;-12
2021/05/14 06:31:15;;;;;;;11.13;2.17;;;21.30;51.20;;;;;;10437551;28;20212;-12
2021/05/14 06:36:36;;;;;;;3.17;1.43;;;21.20;51.40;;;;;;10448067;28;20251;-13
2021/05/14 06:41:58;;;;;;;6.20;1.87;;;21.30;51.00;;;;;;10453418;28;20196;-13
2021/05/14 06:47:21;;;;;;;5.00;1.60;;;21.30;51.10;;;;;;10426514;28;20229;-12
2021/05/14 06:52:42;;;;;;;4.23;1.60;;;21.40;50.80;;;;;;10457042;28;20211;-12
2021/05/14 06:58:04;;;;;;;6.70;1.53;;;21.50;50.70;;;;;;10420650;28;20221;-10
2021/05/14 07:03:27;;;;;;;2.43;1.37;;;21.60;50.60;;;;;;10427214;28;20204;-11
2021/05/14 07:08:49;;;;;;;2.43;1.27;;;21.50;50.60;;;;;;10451490;28;20224;-11
2021/05/14 07:14:11;;;;;;;4.97;1.37;;;21.50;50.80;;;;;;10450333;28;20284;-12
2021/05/14 07:19:33;;;;;;;5.13;1.27;;;21.60;50.80;;;;;;10428406;28;20217;-13
2021/05/14 07:24:56;;;;;;;1.63;1.10;;;21.60;50.70;;;;;;10450945;28;20209;-13
2021/05/14 07:30:18;;;;;;;4.87;1.40;;;21.60;50.90;;;;;;10449573;28;20224;-13
2021/05/14 07:35:40;;;;;;;2.10;1.30;;;21.60;50.90;;;;;;10448328;28;20193;-12
2021/05/14 07:41:02;;;;;;;2.63;1.00;;;21.60;50.90;;;;;;10450685;28;20693;-11
2021/05/14 07:46:23;;;;;;;2.13;1.10;;;21.60;50.90;;;;;;10450407;28;20232;-10
2021/05/14 07:51:46;;;;;;;3.97;1.00;;;21.50;51.00;;;;;;10455135;28;20208;-11
2021/05/14 07:57:07;;;;;;;5.27;1.47;;;21.40;51.20;;;;;;10416552;28;20220;-13
2021/05/14 08:02:30;;;;;;;4.90;1.20;;;21.30;51.20;;;;;;10451957;28;20228;-10
2021/05/14 08:08:06;;;;;;;15.20;1.60;;;21.30;51.60;;;;;;10409057;28;20348;-12
2021/05/14 08:13:28;;;;;;;5.20;1.60;;;21.50;51.00;;;;;;10428869;28;20203;-12
2021/05/14 08:18:51;;;;;;;8.87;1.67;;;21.60;50.90;;;;;;10431130;28;20220;-13
2021/05/14 08:24:13;;;;;;;11.63;1.90;;;21.40;50.80;;;;;;10409212;28;20269;-11
2021/05/14 08:29:37;;;;;;;14.80;2.10;;;21.40;51.70;;;;;;10408923;28;20214;-12
2021/05/14 08:34:58;;;;;;;14.60;2.00;;;21.30;51.20;;;;;;10408066;28;20321;-11
2021/05/14 08:40:21;;;;;;;13.27;1.90;;;21.30;51.50;;;;;;10416007;28;20239;-11
2021/05/14 08:45:43;;;;;;;17.13;2.20;;;21.30;51.70;;;;;;10489392;28;20216;-13
2021/05/14 08:51:10;;;;;;;13.53;2.13;;;21.40;51.40;;;;;;10497469;28;20213;-12
2021/05/14 08:56:32;;;;;;;17.23;2.80;;;21.30;51.50;;;;;;10498529;28;20222;-14
2021/05/14 09:01:54;;;;;;;15.17;2.17;;;21.30;51.50;;;;;;10498471;28;20200;-12
2021/05/14 09:07:18;;;;;;;12.50;2.23;;;21.30;51.50;;;;;;10492443;28;20716;-13
2021/05/14 09:12:42;;;;;;;16.13;2.50;;;21.20;51.60;;;;;;10522400;22;20259;-15
2021/05/14 09:18:09;;;;;;;25.00;3.20;;;21.30;51.70;;;;;;10552764;28;20233;-12
2021/05/14 09:23:34;;;;;;;18.00;3.13;;;21.20;51.80;;;;;;10579546;28;20704;-16
2021/05/14 09:28:57;;;;;;;18.60;3.23;;;21.40;51.50;;;;;;10580687;28;20336;-11
2021/05/14 09:34:19;;;;;;;21.13;2.90;;;21.40;51.30;;;;;;10580965;28;20756;-11
2021/05/14 09:39:40;;;;;;;12.97;2.73;;;21.40;51.50;;;;;;10566787;28;20218;-11
2021/05/14 09:45:17;;;;;;;44.80;5.70;;;21.40;51.60;;;;;;10536121;28;20220;-14
2021/05/14 09:50:38;;;;;;;102.83;8.70;;;21.40;51.50;;;;;;10537240;28;20200;-14
2021/05/14 09:56:03;;;;;;;106.23;9.87;;;21.40;51.80;;;;;;10492039;28;20223;-15
2021/05/14 10:01:27;;;;;;;115.47;10.87;;;21.40;51.80;;;;;;10497659;28;20599;-11
2021/05/14 10:06:49;;;;;;;77.60;7.50;;;21.50;51.50;;;;;;10532890;28;20230;-13
2021/05/14 10:12:12;;;;;;;81.83;9.23;;;21.80;51.00;;;;;;10535485;28;20239;-13
2021/05/14 10:17:35;;;;;;;106.30;10.37;;;22.40;49.60;;;;;;10536072;28;20233;-12
2021/05/14 10:23:00;;;;;;;81.33;7.73;;;22.90;48.30;;;;;;10536152;28;20219;-12
2021/05/14 10:28:24;;;;;;;76.47;7.70;;;23.40;47.30;;;;;;10535706;28;20220;-11
2021/05/14 10:33:49;;;;;;;88.17;9.57;;;23.50;46.90;;;;;;10534760;28;20273;-12
2021/05/14 10:39:15;;;;;;;77.63;8.50;;;23.40;47.10;;;;;;10522101;28;20187;-13
2021/05/14 10:44:52;;;;;;;53.63;8.30;;;23.60;47.10;;;;;;10532422;28;20271;-14
2021/05/14 10:50:32;;;;;;;63.30;7.37;;;23.80;46.70;;;;;;10531711;28;20196;-13
2021/05/14 10:55:55;;;;;;;62.80;9.40;;;24.00;46.20;;;;;;10530368;28;20254;-14
2021/05/14 11:01:31;;;;;;;64.63;8.30;;;24.40;45.70;;;;;;10528880;28;20195;-11
2021/05/14 11:06:54;;;;;;;64.83;8.97;;;24.60;45.30;;;;;;10526773;28;20298;-14
2021/05/14 11:12:25;;;;;;;53.40;8.83;;;24.50;45.30;;;;;;10526365;28;20224;-14
2021/05/14 11:18:21;;;;;;;60.23;8.63;;;24.30;45.40;;;;;;10535263;28;20684;-13
2021/05/14 11:23:43;;;;;;;49.00;7.00;;;24.30;45.70;;;;;;10527940;28;20213;-14
2021/05/14 11:29:05;;;;;;;41.40;7.53;;;23.50;46.60;;;;;;10533454;28;20223;-15
2021/05/14 11:34:26;;;;;;;39.60;6.53;;;22.90;48.10;;;;;;10533401;28;20215;-13
2021/05/14 11:39:49;;;;;;;36.10;6.80;;;22.40;49.20;;;;;;10533090;28;20580;-14
2021/05/14 11:45:18;;;;;;;30.00;5.67;;;22.40;49.60;;;;;;10531494;28;20227;-12
2021/05/14 11:50:41;;;;;;;32.83;6.00;;;23.00;48.50;;;;;;10529917;28;20286;-13
2021/05/14 11:56:05;;;;;;;50.10;6.97;;;22.70;48.90;;;;;;10489834;28;20205;-11
2021/05/14 12:01:37;;;;;;;46.50;7.50;;;22.60;49.40;;;;;;10511973;28;20282;-13
2021/05/14 12:06:59;;;;;;;55.67;7.10;;;22.50;49.70;;;;;;10531024;28;20233;-15
2021/05/14 12:12:21;;;;;;;45.20;6.67;;;22.40;50.60;;;;;;10531292;28;20239;-15
2021/05/14 12:17:44;;;;;;;36.80;6.17;;;22.30;50.80;;;;;;10529933;28;20200;-12
2021/05/14 12:23:08;;;;;;;31.67;6.37;;;22.30;50.80;;;;;;10536176;28;20215;-11
2021/05/14 12:28:33;;;;;;;22.10;5.10;;;22.20;51.00;;;;;;10541283;28;20242;-13
2021/05/14 12:33:57;;;;;;;38.63;5.80;;;22.20;51.00;;;;;;10539004;28;20852;-12
2021/05/14 12:39:20;;;;;;;27.03;5.30;;;22.10;51.00;;;;;;10539770;28;20569;-11
2021/05/14 12:44:48;;;;;;;20.53;4.47;;;22.30;51.00;;;;;;10535997;28;20212;-14
2021/05/14 12:50:10;;;;;;;24.53;4.77;;;22.50;50.60;;;;;;10532277;28;20200;-14
2021/05/14 12:55:40;;;;;;;21.17;4.57;;;22.50;50.40;;;;;;10539433;28;20216;-12
2021/05/14 13:01:02;;;;;;;16.90;4.17;;;22.60;50.50;;;;;;10548127;28;20206;-12
2021/05/14 13:06:29;;;;;;;11.97;3.60;;;22.50;50.50;;;;;;10542945;28;20220;-14
2021/05/14 13:11:50;;;;;;;13.23;3.90;;;22.60;50.30;;;;;;10536907;28;20203;-11
2021/05/14 13:17:13;;;;;;;12.97;3.37;;;22.60;50.20;;;;;;10538058;28;20576;-12
2021/05/14 13:22:35;;;;;;;12.03;3.87;;;22.70;50.10;;;;;;10537959;28;20223;-12
2021/05/14 13:27:56;;;;;;;8.90;3.30;;;22.70;50.00;;;;;;10537438;28;20791;-14
2021/05/14 13:33:19;;;;;;;7.90;3.30;;;22.70;50.00;;;;;;10536218;28;20226;-14
2021/05/14 13:38:41;;;;;;;8.30;3.23;;;22.70;49.80;;;;;;10537911;28;20563;-11
2021/05/14 13:44:04;;;;;;;8.20;2.83;;;22.60;49.80;;;;;;10536853;28;20620;-14
2021/05/14 13:49:26;;;;;;;7.20;2.67;;;22.70;49.90;;;;;;10536206;28;20223;-11
2021/05/14 13:54:48;;;;;;;11.77;3.00;;;22.60;50.00;;;;;;10527735;28;20212;-12
2021/05/14 14:00:11;;;;;;;6.67;3.17;;;22.50;50.10;;;;;;10536468;28;20196;-15
2021/05/14 14:05:33;;;;;;;13.07;3.57;;;22.70;49.70;;;;;;10533325;28;20219;-16
2021/05/14 14:10:55;;;;;;;8.67;3.30;;;22.90;49.40;;;;;;10522513;28;20212;-12
2021/05/14 14:16:16;;;;;;;8.87;3.30;;;22.30;50.20;;;;;;10519038;28;20223;-14
2021/05/14 14:21:39;;;;;;;6.97;2.60;;;22.00;50.70;;;;;;10534869;28;20214;-13
2021/05/14 14:27:00;;;;;;;4.50;2.60;;;21.90;51.30;;;;;;10534680;28;20207;-10
2021/05/14 14:32:22;;;;;;;5.13;2.40;;;21.80;51.60;;;;;;10535435;28;20215;-11
2021/05/14 14:37:44;;;;;;;9.27;2.83;;;21.60;52.00;;;;;;10535174;28;20217;-14
2021/05/14 14:43:06;;;;;;;5.23;2.90;;;21.60;52.10;;;;;;10535039;28;20211;-11
2021/05/14 14:48:28;;;;;;;6.23;2.40;;;21.50;52.60;;;;;;10533589;28;20222;-16
2021/05/14 14:53:50;;;;;;;7.73;2.90;;;21.40;52.70;;;;;;10530313;28;20207;-13
2021/05/14 14:59:12;;;;;;;7.50;2.40;;;21.50;52.70;;;;;;10533287;28;20188;-10
2021/05/14 15:04:33;;;;;;;5.40;2.37;;;21.70;52.10;;;;;;10531968;28;20241;-13
2021/05/14 15:09:56;;;;;;;5.27;2.60;;;21.60;51.90;;;;;;10565126;28;20198;-12
2021/05/14 15:20:25;;;;;;;5.97;2.57;;;21.60;52.20;;;;;;10531136;22;20277;-12
2021/05/14 15:25:48;;;;;;;11.93;2.30;;;21.60;52.20;;;;;;10533428;28;20231;-12
2021/05/14 15:31:10;;;;;;;5.03;2.10;;;21.60;52.30;;;;;;10535216;28;20604;-11
2021/05/14 15:36:32;;;;;;;6.67;2.50;;;21.60;52.20;;;;;;10534032;28;20211;-11
2021/05/14 15:41:54;;;;;;;15.13;3.20;;;21.70;52.10;;;;;;10533647;28;20221;-12
2021/05/14 15:47:16;;;;;;;22.17;3.50;;;21.80;51.40;;;;;;10532421;28;20704;-12
2021/05/14 15:52:37;;;;;;;82.63;9.17;;;21.70;51.80;;;;;;10519864;28;20572;-13
2021/05/14 15:58:00;;;;;;;78.33;8.27;;;22.00;51.80;;;;;;10515011;28;20695;-12
2021/05/14 16:03:21;;;;;;;50.20;6.90;;;22.10;51.70;;;;;;10519929;28;20201;-12
2021/05/14 16:08:43;;;;;;;39.50;6.03;;;22.00;51.80;;;;;;10515200;28;20219;-13
2021/05/14 16:14:05;;;;;;;43.13;6.03;;;22.00;52.20;;;;;;10511616;28;20199;-13
2021/05/14 16:19:27;;;;;;;30.43;5.23;;;21.90;51.90;;;;;;10516454;28;20247;-11
2021/05/14 16:24:49;;;;;;;38.43;5.93;;;21.90;52.00;;;;;;10530939;28;20211;-12
2021/05/14 16:30:14;;;;;;;24.60;5.93;;;22.30;51.40;;;;;;10531969;28;20219;-11
2021/05/14 16:35:37;;;;;;;38.70;6.93;;;23.00;49.40;;;;;;10531976;28;20567;-9
2021/05/14 16:40:59;;;;;;;26.43;5.50;;;22.70;50.40;;;;;;10532016;28;20191;-12
2021/05/14 16:46:21;;;;;;;26.97;4.93;;;22.40;50.80;;;;;;10495915;28;20224;-12
2021/05/14 16:51:44;;;;;;;16.30;4.13;;;22.30;50.70;;;;;;10502135;28;20197;-11
2021/05/14 16:57:05;;;;;;;18.10;4.47;;;22.10;51.30;;;;;;10489700;28;20216;-13
2021/05/14 17:02:28;;;;;;;21.33;4.10;;;22.00;51.50;;;;;;10491786;28;20197;-11
2021/05/14 17:07:49;;;;;;;15.00;3.57;;;22.10;51.50;;;;;;10491627;28;20266;-13
2021/05/14 17:13:11;;;;;;;13.27;3.80;;;22.10;52.10;;;;;;10497632;28;20599;-13
2021/05/14 17:18:33;;;;;;;14.10;3.57;;;22.10;51.80;;;;;;10497316;28;20688;-11
2021/05/14 17:23:55;;;;;;;12.50;3.77;;;22.00;51.60;;;;;;10497964;28;20580;-12
2021/05/14 17:29:18;;;;;;;15.55;3.70;;;22.10;51.40;;;;;;10496766;28;20781;-12
2021/05/14 17:34:41;;;;;;;10.40;2.90;;;22.80;49.60;;;;;;10526513;28;20207;-11
2021/05/14 17:40:05;;;;;;;10.00;2.80;;;22.20;51.00;;;;;;10539883;28;20218;-12
2021/05/14 17:45:27;;;;;;;9.77;2.67;;;22.00;51.80;;;;;;10537523;28;20261;-11
2021/05/14 17:50:50;;;;;;;6.33;2.47;;;21.80;51.90;;;;;;10539556;28;20199;-13
2021/05/14 17:56:12;;;;;;;6.07;2.60;;;21.70;52.30;;;;;;10496709;28;20326;-13
2021/05/14 18:01:33;;;;;;;4.97;2.20;;;21.70;52.30;;;;;;10495580;28;20197;-13
2021/05/14 18:06:56;;;;;;;7.07;2.10;;;21.60;52.40;;;;;;10505022;28;20230;-11
2021/05/14 18:12:18;;;;;;;7.63;2.67;;;21.60;52.50;;;;;;10537947;28;20223;-12
2021/05/14 18:17:40;;;;;;;5.13;2.60;;;21.60;52.60;;;;;;10535330;28;20220;-12
2021/05/14 18:23:03;;;;;;;4.63;2.00;;;21.60;52.30;;;;;;10531136;28;20297;-14
2021/05/14 18:28:25;;;;;;;4.70;2.17;;;21.60;52.30;;;;;;10500753;28;20680;-12
2021/05/14 18:33:47;;;;;;;4.40;2.10;;;21.60;52.20;;;;;;10529790;28;20188;-11
2021/05/14 18:39:10;;;;;;;6.93;1.90;;;21.60;52.50;;;;;;10502978;28;20631;-12
2021/05/14 18:44:31;;;;;;;7.57;2.40;;;21.70;52.10;;;;;;10536733;28;20191;-11
2021/05/14 18:49:53;;;;;;;5.70;2.10;;;21.60;52.20;;;;;;10535927;28;20230;-12
2021/05/14 18:55:16;;;;;;;3.97;2.03;;;21.60;52.20;;;;;;10532580;28;20261;-12
2021/05/14 19:00:40;;;;;;;2.43;1.70;;;21.70;52.10;;;;;;10532105;28;20256;-12
2021/05/14 19:06:01;;;;;;;5.13;2.10;;;21.70;52.00;;;;;;10534358;28;20246;-12
2021/05/14 19:11:24;;;;;;;3.70;1.80;;;21.70;52.10;;;;;;10535562;28;20199;-11
2021/05/14 19:16:45;;;;;;;2.97;1.70;;;21.70;52.10;;;;;;10531364;28;20220;-14
2021/05/14 19:22:09;;;;;;;3.00;1.67;;;21.60;52.10;;;;;;10533331;28;20195;-12
2021/05/14 19:28:09;;;;;;;5.00;2.10;;;21.60;52.20;;;;;;10534840;28;20744;-12
2021/05/14 19:44:56;;;;;;;5.70;2.20;;;21.60;52.30;;;;;;10516324;28;20176;-12
2021/05/14 19:50:18;;;;;;;5.20;1.90;;;21.60;52.40;;;;;;10526704;28;20411;-11
2021/05/14 19:55:40;;;;;;;8.97;2.70;;;21.50;52.40;;;;;;10526454;28;20191;-13
2021/05/14 20:01:02;;;;;;;8.37;2.60;;;21.60;52.50;;;;;;10529013;28;20200;-11
2021/05/14 20:06:25;;;;;;;6.03;2.33;;;21.50;52.30;;;;;;10533663;28;20219;-11
2021/05/14 20:11:47;;;;;;;8.30;2.67;;;21.50;52.70;;;;;;10535200;28;20198;-12
2021/05/14 20:17:09;;;;;;;7.97;2.47;;;21.50;52.70;;;;;;10530360;28;20230;-11
2021/05/14 20:22:31;;;;;;;4.60;2.47;;;21.40;52.70;;;;;;10502188;28;20196;-13
2021/05/14 20:27:52;;;;;;;7.90;2.40;;;21.40;52.80;;;;;;10528831;28;20592;-14
2021/05/14 20:33:15;;;;;;;5.73;2.23;;;21.30;52.80;;;;;;10491944;28;20204;-12
2021/05/14 20:38:38;;;;;;;9.20;2.40;;;21.40;52.90;;;;;;10521065;28;20216;-13
2021/05/14 20:44:01;;;;;;;3.57;1.90;;;21.30;52.90;;;;;;10517457;28;20626;-13
2021/05/14 20:49:23;;;;;;;4.17;2.20;;;21.30;52.80;;;;;;10523725;28;20285;-11
2021/05/14 20:54:45;;;;;;;4.10;2.43;;;21.30;52.90;;;;;;10508850;28;20208;-11
2021/05/14 21:00:08;;;;;;;4.63;1.97;;;21.30;52.90;;;;;;10511725;28;20288;-13
2021/05/14 21:05:30;;;;;;;3.80;2.10;;;21.30;52.80;;;;;;10541771;28;20188;-11
2021/05/14 21:10:53;;;;;;;6.43;2.30;;;21.30;52.70;;;;;;10539797;28;20245;-11
2021/05/14 21:16:15;;;;;;;3.80;2.33;;;21.30;52.80;;;;;;10540802;28;20702;-11
2021/05/14 21:21:37;;;;;;;3.57;2.10;;;21.30;52.70;;;;;;10540514;28;20221;-11
2021/05/14 21:26:59;;;;;;;2.63;1.73;;;21.30;52.60;;;;;;10529867;22;20231;-14
2021/05/14 21:32:21;;;;;;;3.70;2.20;;;21.30;52.70;;;;;;10471750;28;20205;-14
2021/05/14 21:37:43;;;;;;;2.60;2.07;;;21.20;52.80;;;;;;10518639;28;20249;-16
2021/05/14 21:43:05;;;;;;;3.17;1.87;;;21.20;52.90;;;;;;10497636;28;20196;-13
2021/05/14 21:48:27;;;;;;;2.30;1.90;;;21.20;53.00;;;;;;10496378;28;20228;-16
2021/05/14 21:53:50;;;;;;;2.30;1.80;;;21.10;53.10;;;;;;10471937;28;20276;-11
2021/05/14 21:59:11;;;;;;;3.93;2.13;;;21.10;53.00;;;;;;10477197;28;20505;-12
2021/05/14 22:04:33;;;;;;;2.67;2.10;;;21.20;53.00;;;;;;10436861;28;20232;-14
2021/05/14 22:09:55;;;;;;;1.97;1.53;;;21.10;53.00;;;;;;10413705;28;20411;-15
2021/05/14 22:15:17;;;;;;;2.50;2.17;;;21.20;53.00;;;;;;10413146;28;20276;-13
2021/05/14 22:20:41;;;;;;;2.30;1.90;;;21.30;52.80;;;;;;10455248;28;20200;-11
2021/05/14 22:26:03;;;;;;;3.07;2.20;;;21.20;52.80;;;;;;10494397;28;20213;-11
2021/05/14 22:31:25;;;;;;;2.83;1.93;;;21.20;53.00;;;;;;10460806;28;20205;-14
2021/05/14 22:36:47;;;;;;;3.33;2.00;;;21.20;52.80;;;;;;10453626;28;20677;-14
2021/05/14 22:42:10;;;;;;;2.43;1.80;;;21.20;52.90;;;;;;10453804;28;20212;-12
2021/05/14 22:47:31;;;;;;;2.43;1.90;;;21.20;52.80;;;;;;10453675;28;20693;-12
2021/05/14 22:52:53;;;;;;;2.17;1.83;;;21.20;52.70;;;;;;10454381;28;20200;-14
2021/05/14 22:58:16;;;;;;;2.60;2.00;;;21.20;52.70;;;;;;10412263;28;20218;-11
2021/05/14 23:03:37;;;;;;;4.27;2.17;;;21.20;52.70;;;;;;10411275;28;20204;-14
2021/05/14 23:08:59;;;;;;;2.57;1.93;;;21.20;52.70;;;;;;10410094;28;20229;-16
2021/05/14 23:14:21;;;;;;;2.63;1.97;;;21.20;52.80;;;;;;10410245;28;20207;-14
2021/05/14 23:19:43;;;;;;;3.10;1.90;;;21.20;52.60;;;;;;10410958;28;20613;-14
2021/05/14 23:25:06;;;;;;;3.07;1.90;;;21.20;52.60;;;;;;10410082;28;20317;-11
2021/05/14 23:30:29;;;;;;;2.07;1.70;;;21.20;52.60;;;;;;10436819;28;20570;-14
2021/05/14 23:35:50;;;;;;;2.03;1.83;;;21.20;52.70;;;;;;10451764;28;20205;-12
2021/05/14 23:41:12;;;;;;;3.03;1.80;;;21.10;52.80;;;;;;10452629;28;20204;-12
2021/05/14 23:46:35;;;;;;;3.73;2.07;;;21.20;52.80;;;;;;10451159;28;20221;-13
2021/05/14 23:51:56;;;;;;;3.10;1.97;;;21.20;52.60;;;;;;10456056;28;20715;-11
2021/05/14 23:57:18;;;;;;;2.83;1.83;;;21.20;52.60;;;;;;10464997;28;20213;-11
